createdAt,value
2017-01-31T00:01:02.983Z,24.36
2017-01-31T00:02:16.231Z,24.36
2017-01-31T00:03:30.054Z,24.34
2017-01-31T00:04:44.171Z,24.41
2017-01-31T00:05:57.988Z,24.33
2017-01-31T00:07:11.811Z,24.37
2017-01-31T00:08:25.634Z,24.33
2017-01-31T00:09:39.452Z,24.33
2017-01-31T00:10:53.268Z,24.23
2017-01-31T00:12:07.091Z,24.33
2017-01-31T00:13:20.298Z,24.29
2017-01-31T00:15:01.853Z,24.26
2017-01-31T00:16:14.461Z,24.27
2017-01-31T00:17:28.280Z,24.3
2017-01-31T00:18:42.099Z,24.31
2017-01-31T00:19:55.310Z,24.31
2017-01-31T00:21:09.130Z,24.23
2017-01-31T00:22:22.342Z,24.33
2017-01-31T00:23:50.187Z,24.39
2017-01-31T00:25:18.179Z,24.36
2017-01-31T00:26:31.994Z,24.37
2017-01-31T00:27:45.824Z,24.41
2017-01-31T00:28:59.655Z,24.36
2017-01-31T00:30:13.752Z,24.31
2017-01-31T00:31:26.972Z,24.42
2017-01-31T00:32:40.815Z,24.34
2017-01-31T00:33:54.664Z,24.37
2017-01-31T00:35:08.508Z,24.42
2017-01-31T00:36:20.533Z,24.49
2017-01-31T00:37:34.366Z,24.48
2017-01-31T00:38:48.199Z,24.49
2017-01-31T00:40:01.423Z,24.52
2017-01-31T00:41:15.260Z,24.52
2017-01-31T00:42:29.098Z,24.42
2017-01-31T00:43:42.939Z,24.51
2017-01-31T00:44:56.775Z,24.45
2017-01-31T00:46:10.005Z,24.46
2017-01-31T00:47:23.852Z,24.45
2017-01-31T00:48:37.692Z,24.49
2017-01-31T00:49:51.518Z,24.45
2017-01-31T00:51:05.351Z,24.51
2017-01-31T00:52:19.392Z,24.48
2017-01-31T00:53:33.217Z,24.42
2017-01-31T00:54:47.050Z,24.53
2017-01-31T00:56:00.888Z,24.53
2017-01-31T00:57:13.728Z,24.48
2017-01-31T00:58:27.577Z,24.56
2017-01-31T00:59:41.417Z,24.53
2017-01-31T01:00:55.270Z,24.46
2017-01-31T01:02:09.115Z,24.49
2017-01-31T01:03:50.888Z,24.51
2017-01-31T01:05:04.730Z,24.6
2017-01-31T01:06:17.974Z,24.52
2017-01-31T01:07:32.011Z,24.55
2017-01-31T01:08:45.839Z,24.51
2017-01-31T01:09:59.663Z,24.55
2017-01-31T01:11:12.877Z,24.56
2017-01-31T01:12:25.489Z,24.55
2017-01-31T01:13:39.509Z,24.48
2017-01-31T01:14:53.333Z,24.46
2017-01-31T01:16:07.157Z,24.48
2017-01-31T01:17:20.377Z,24.45
2017-01-31T01:18:34.198Z,24.41
2017-01-31T01:19:48.018Z,24.44
2017-01-31T01:21:01.839Z,24.46
2017-01-31T01:22:14.449Z,24.46
2017-01-31T01:23:42.139Z,24.48
2017-01-31T01:24:55.960Z,24.46
2017-01-31T01:26:09.781Z,24.45
2017-01-31T01:27:22.993Z,24.36
2017-01-31T01:28:36.812Z,24.33
2017-01-31T01:29:50.626Z,24.29
2017-01-31T01:31:04.451Z,24.27
2017-01-31T01:32:18.267Z,24.19
2017-01-31T01:33:32.087Z,24.14
2017-01-31T01:34:46.138Z,24.11
2017-01-31T01:35:59.959Z,24.12
2017-01-31T01:37:13.175Z,24.09
2017-01-31T01:38:26.996Z,24.05
2017-01-31T01:39:54.683Z,24.09
2017-01-31T01:41:07.901Z,24.08
2017-01-31T01:42:21.722Z,24.06
2017-01-31T01:43:34.938Z,24.12
2017-01-31T01:44:48.760Z,24.14
2017-01-31T01:46:02.579Z,24.09
2017-01-31T01:47:16.399Z,24.08
2017-01-31T01:48:30.219Z,24.12
2017-01-31T01:49:44.033Z,24.02
2017-01-31T01:50:57.852Z,23.99
2017-01-31T01:52:11.067Z,24.02
2017-01-31T01:53:24.897Z,23.93
2017-01-31T01:54:38.745Z,23.89
2017-01-31T01:55:52.572Z,23.9
2017-01-31T01:57:06.760Z,23.92
2017-01-31T01:58:20.577Z,23.89
2017-01-31T01:59:34.399Z,23.89
2017-01-31T02:00:48.218Z,23.93
2017-01-31T02:02:02.035Z,23.89
2017-01-31T02:03:14.646Z,23.89
2017-01-31T02:04:27.861Z,23.89
2017-01-31T02:05:41.696Z,23.86
2017-01-31T02:06:54.915Z,23.74
2017-01-31T02:08:08.757Z,23.79
2017-01-31T02:09:22.603Z,23.79
2017-01-31T02:10:36.457Z,23.79
2017-01-31T02:11:50.305Z,23.74
2017-01-31T02:13:04.391Z,23.74
2017-01-31T02:14:18.227Z,23.86
2017-01-31T02:15:32.056Z,23.84
2017-01-31T02:16:45.876Z,23.9
2017-01-31T02:17:59.953Z,23.93
2017-01-31T02:19:13.190Z,23.87
2017-01-31T02:20:27.034Z,23.86
2017-01-31T02:21:40.850Z,23.84
2017-01-31T02:23:08.548Z,23.94
2017-01-31T02:24:22.372Z,23.94
2017-01-31T02:25:36.189Z,23.94
2017-01-31T02:26:50.005Z,23.87
2017-01-31T02:28:04.177Z,23.68
2017-01-31T02:29:16.787Z,23.71
2017-01-31T02:30:30.614Z,23.69
2017-01-31T02:31:44.436Z,23.62
2017-01-31T02:32:58.257Z,23.63
2017-01-31T02:34:11.686Z,23.6
2017-01-31T02:35:25.510Z,23.53
2017-01-31T02:36:39.331Z,23.59
2017-01-31T02:38:07.020Z,23.6
2017-01-31T02:39:20.840Z,23.53
2017-01-31T02:40:34.664Z,23.53
2017-01-31T02:41:48.483Z,23.52
2017-01-31T02:43:02.300Z,23.47
2017-01-31T02:44:16.343Z,23.45
2017-01-31T02:45:30.167Z,23.41
2017-01-31T02:46:43.386Z,23.38
2017-01-31T02:47:56.605Z,23.35
2017-01-31T02:49:10.782Z,23.26
2017-01-31T02:50:24.607Z,23.44
2017-01-31T02:51:38.424Z,23.42
2017-01-31T02:52:52.264Z,23.49
2017-01-31T02:54:06.104Z,23.52
2017-01-31T02:55:19.923Z,23.44
2017-01-31T02:56:33.749Z,23.44
2017-01-31T02:57:46.977Z,23.45
2017-01-31T02:59:00.808Z,23.54
2017-01-31T03:00:14.227Z,23.45
2017-01-31T03:01:28.071Z,23.5
2017-01-31T03:02:41.902Z,23.52
2017-01-31T03:03:55.739Z,23.52
2017-01-31T03:05:09.920Z,23.45
2017-01-31T03:06:23.754Z,23.39
2017-01-31T03:07:37.607Z,23.42
2017-01-31T03:08:51.433Z,23.42
2017-01-31T03:10:05.276Z,23.41
2017-01-31T03:11:17.903Z,23.45
2017-01-31T03:12:31.750Z,23.5
2017-01-31T03:13:45.619Z,23.49
2017-01-31T03:14:59.469Z,23.49
2017-01-31T03:16:13.669Z,23.42
2017-01-31T03:17:26.912Z,23.44
2017-01-31T03:18:40.766Z,23.45
2017-01-31T03:19:54.625Z,23.52
2017-01-31T03:21:22.331Z,23.5
2017-01-31T03:22:36.157Z,23.45
2017-01-31T03:24:03.846Z,23.53
2017-01-31T03:25:17.062Z,23.47
2017-01-31T03:26:31.083Z,23.49
2017-01-31T03:27:44.900Z,23.49
2017-01-31T03:28:58.719Z,23.6
2017-01-31T03:30:12.543Z,23.45
2017-01-31T03:31:26.746Z,23.52
2017-01-31T03:32:40.564Z,23.54
2017-01-31T03:33:54.387Z,23.62
2017-01-31T03:35:07.604Z,23.39
2017-01-31T03:36:35.641Z,23.42
2017-01-31T03:38:03.328Z,23.47
2017-01-31T03:39:17.147Z,23.47
2017-01-31T03:40:30.966Z,23.53
2017-01-31T03:41:45.144Z,23.49
2017-01-31T03:42:58.962Z,23.62
2017-01-31T03:44:12.783Z,23.53
2017-01-31T03:45:26.604Z,23.62
2017-01-31T03:46:40.450Z,23.62
2017-01-31T03:47:54.273Z,23.54
2017-01-31T03:49:21.969Z,23.6
2017-01-31T03:50:35.790Z,23.52
2017-01-31T03:51:49.253Z,23.49
2017-01-31T03:53:03.068Z,23.5
2017-01-31T03:54:16.886Z,23.45
2017-01-31T03:55:30.712Z,23.45
2017-01-31T03:56:44.730Z,23.42
2017-01-31T03:57:58.548Z,23.45
2017-01-31T03:59:11.763Z,23.54
2017-01-31T04:00:25.578Z,23.47
2017-01-31T04:01:39.398Z,23.49
2017-01-31T04:02:53.251Z,23.49
2017-01-31T04:04:07.076Z,23.45
2017-01-31T04:05:20.899Z,23.49
2017-01-31T04:06:34.730Z,23.39
2017-01-31T04:07:48.553Z,23.39
2017-01-31T04:10:30.077Z,23.42
2017-01-31T04:11:43.908Z,23.44
2017-01-31T04:13:11.603Z,23.52
2017-01-31T04:14:25.429Z,23.56
2017-01-31T04:15:39.252Z,23.52
2017-01-31T04:16:53.073Z,23.57
2017-01-31T04:18:06.640Z,23.54
2017-01-31T04:19:20.472Z,23.53
2017-01-31T04:20:34.298Z,23.59
2017-01-31T04:21:48.124Z,23.6
2017-01-31T04:23:01.979Z,23.62
2017-01-31T04:24:14.601Z,23.69
2017-01-31T04:25:27.822Z,23.63
2017-01-31T04:26:41.652Z,23.6
2017-01-31T04:27:55.482Z,23.59
2017-01-31T04:29:08.709Z,23.6
2017-01-31T04:30:21.948Z,23.6
2017-01-31T04:31:35.781Z,23.57
2017-01-31T04:32:49.631Z,23.57
2017-01-31T04:34:03.825Z,23.62
2017-01-31T04:35:17.680Z,23.59
2017-01-31T04:36:31.529Z,23.68
2017-01-31T04:37:45.369Z,23.64
2017-01-31T04:38:59.253Z,23.6
2017-01-31T04:40:27.325Z,23.6
2017-01-31T04:41:41.177Z,23.47
2017-01-31T04:42:55.021Z,23.62
2017-01-31T04:44:08.261Z,23.59
2017-01-31T04:45:22.099Z,23.63
2017-01-31T04:46:35.950Z,23.6
2017-01-31T04:47:49.795Z,23.62
2017-01-31T04:49:03.630Z,23.71
2017-01-31T04:50:17.823Z,23.69
2017-01-31T04:51:31.662Z,23.74
2017-01-31T04:52:45.503Z,23.67
2017-01-31T04:53:59.349Z,23.69
2017-01-31T04:55:13.201Z,23.69
2017-01-31T04:56:27.048Z,23.69
2017-01-31T04:57:40.908Z,23.75
2017-01-31T04:59:08.625Z,23.62
2017-01-31T05:00:21.850Z,23.62
2017-01-31T05:01:35.693Z,23.68
2017-01-31T05:02:49.527Z,23.67
2017-01-31T05:04:03.373Z,23.59
2017-01-31T05:05:17.222Z,23.6
2017-01-31T05:06:31.066Z,23.42
2017-01-31T05:07:44.916Z,23.53
2017-01-31T05:08:58.773Z,23.56
2017-01-31T05:10:12.618Z,23.59
2017-01-31T05:11:26.464Z,23.56
2017-01-31T05:12:40.309Z,23.53
2017-01-31T05:13:54.153Z,23.54
2017-01-31T05:15:07.988Z,23.63
2017-01-31T05:16:21.211Z,23.59
2017-01-31T05:17:34.456Z,23.63
2017-01-31T05:18:48.304Z,23.62
2017-01-31T05:20:02.165Z,23.6
2017-01-31T05:21:15.411Z,23.64
2017-01-31T05:22:28.854Z,23.62
2017-01-31T05:23:42.704Z,23.59
2017-01-31T05:24:56.566Z,23.62
2017-01-31T05:26:09.810Z,23.71
2017-01-31T05:27:23.884Z,23.62
2017-01-31T05:28:37.732Z,23.74
2017-01-31T05:30:04.834Z,23.72
2017-01-31T05:31:18.682Z,23.69
2017-01-31T05:32:32.883Z,23.69
2017-01-31T05:33:46.729Z,23.71
2017-01-31T05:35:00.578Z,23.72
2017-01-31T05:36:13.821Z,23.64
2017-01-31T05:37:27.873Z,23.63
2017-01-31T05:38:41.724Z,23.69
2017-01-31T05:39:55.573Z,23.59
2017-01-31T05:41:09.424Z,23.64
2017-01-31T05:42:23.275Z,23.69
2017-01-31T05:43:35.920Z,23.64
2017-01-31T05:44:49.770Z,23.63
2017-01-31T05:46:03.619Z,23.6
2017-01-31T05:47:17.468Z,23.62
2017-01-31T05:48:31.668Z,23.57
2017-01-31T05:49:45.544Z,23.63
2017-01-31T05:50:59.393Z,23.53
2017-01-31T05:52:13.244Z,23.6
2017-01-31T05:53:27.100Z,23.52
2017-01-31T05:54:40.950Z,23.59
2017-01-31T05:55:53.594Z,23.52
2017-01-31T05:57:07.444Z,23.53
2017-01-31T05:58:21.294Z,23.56
2017-01-31T05:59:35.162Z,23.64
2017-01-31T06:01:02.873Z,23.67
2017-01-31T06:02:16.726Z,23.54
2017-01-31T06:03:30.778Z,23.53
2017-01-31T06:04:44.628Z,23.56
2017-01-31T06:05:58.476Z,23.62
2017-01-31T06:07:12.331Z,23.57
2017-01-31T06:08:25.573Z,23.45
2017-01-31T06:09:39.622Z,23.49
2017-01-31T06:11:07.330Z,23.47
2017-01-31T06:12:20.570Z,23.49
2017-01-31T06:13:34.423Z,23.49
2017-01-31T06:14:48.270Z,23.45
2017-01-31T06:16:02.120Z,23.52
2017-01-31T06:17:15.972Z,23.45
2017-01-31T06:18:29.827Z,23.44
2017-01-31T06:19:43.269Z,23.41
2017-01-31T06:20:57.116Z,23.41
2017-01-31T06:22:10.364Z,23.41
2017-01-31T06:23:24.210Z,23.44
2017-01-31T06:24:52.272Z,23.41
2017-01-31T06:26:06.118Z,23.44
2017-01-31T06:27:19.967Z,23.49
2017-01-31T06:28:33.211Z,23.47
2017-01-31T06:30:01.274Z,23.45
2017-01-31T06:31:15.123Z,23.37
2017-01-31T06:32:28.970Z,23.35
2017-01-31T06:33:42.216Z,23.37
2017-01-31T06:35:10.276Z,23.35
2017-01-31T06:36:24.127Z,23.39
2017-01-31T06:37:37.975Z,23.38
2017-01-31T06:39:05.687Z,23.42
2017-01-31T06:40:18.927Z,23.39
2017-01-31T06:41:32.778Z,23.45
2017-01-31T06:42:46.032Z,23.35
2017-01-31T06:44:13.143Z,23.39
2017-01-31T06:45:26.996Z,23.49
2017-01-31T06:46:40.849Z,23.56
2017-01-31T06:47:54.092Z,23.52
2017-01-31T06:49:07.340Z,23.49
2017-01-31T06:50:20.587Z,23.42
2017-01-31T06:51:34.634Z,23.5
2017-01-31T06:52:48.482Z,23.44
2017-01-31T06:54:02.334Z,23.47
2017-01-31T06:55:16.196Z,23.47
2017-01-31T06:56:30.394Z,23.47
2017-01-31T06:57:43.638Z,23.52
2017-01-31T06:58:57.489Z,23.47
2017-01-31T07:00:10.766Z,23.49
2017-01-31T07:01:24.005Z,23.5
2017-01-31T07:02:37.249Z,23.42
2017-01-31T07:03:51.119Z,23.45
2017-01-31T07:05:04.971Z,23.49
2017-01-31T07:06:18.821Z,23.47
2017-01-31T07:07:33.020Z,23.41
2017-01-31T07:08:46.870Z,23.42
2017-01-31T07:10:00.723Z,23.49
2017-01-31T07:11:13.970Z,23.41
2017-01-31T07:12:27.843Z,23.42
2017-01-31T07:13:41.693Z,23.41
2017-01-31T07:14:55.546Z,23.38
2017-01-31T07:16:22.656Z,23.37
2017-01-31T07:17:35.895Z,23.31
2017-01-31T07:18:49.742Z,23.22
2017-01-31T07:20:03.640Z,23.32
2017-01-31T07:21:30.139Z,23.31
2017-01-31T07:22:43.381Z,23.32
2017-01-31T07:23:57.230Z,23.38
2017-01-31T07:25:11.081Z,23.34
2017-01-31T07:26:24.929Z,23.35
2017-01-31T07:27:52.337Z,23.29
2017-01-31T07:29:06.189Z,23.32
2017-01-31T07:30:20.043Z,23.29
2017-01-31T07:31:33.892Z,23.38
2017-01-31T07:32:47.739Z,23.41
2017-01-31T07:34:01.587Z,23.47
2017-01-31T07:35:15.436Z,23.49
2017-01-31T07:36:29.283Z,23.39
2017-01-31T07:37:43.140Z,23.41
2017-01-31T07:38:57.338Z,23.5
2017-01-31T07:40:11.194Z,23.5
2017-01-31T07:41:25.042Z,23.47
2017-01-31T07:42:38.894Z,23.52
2017-01-31T07:43:53.095Z,23.5
2017-01-31T07:45:06.336Z,23.57
2017-01-31T07:46:19.583Z,23.39
2017-01-31T07:47:33.434Z,23.49
2017-01-31T07:48:47.282Z,23.5
2017-01-31T07:50:01.342Z,23.45
2017-01-31T07:51:14.584Z,23.53
2017-01-31T07:52:28.436Z,23.59
2017-01-31T07:53:42.288Z,23.63
2017-01-31T07:54:56.335Z,23.63
2017-01-31T07:56:10.186Z,23.56
2017-01-31T07:57:24.039Z,23.5
2017-01-31T07:58:37.894Z,23.56
2017-01-31T07:59:51.949Z,23.44
2017-01-31T08:01:05.822Z,23.47
2017-01-31T08:02:19.673Z,23.45
2017-01-31T08:03:33.525Z,23.47
2017-01-31T08:05:01.238Z,23.44
2017-01-31T08:06:15.099Z,23.45
2017-01-31T08:07:28.951Z,23.47
2017-01-31T08:08:42.807Z,23.41
2017-01-31T08:09:56.659Z,23.41
2017-01-31T08:11:10.517Z,23.38
2017-01-31T08:12:24.365Z,23.44
2017-01-31T08:13:38.217Z,23.45
2017-01-31T08:14:52.067Z,23.45
2017-01-31T08:16:06.265Z,23.41
2017-01-31T08:17:20.115Z,23.35
2017-01-31T08:18:33.984Z,23.32
2017-01-31T08:19:47.833Z,23.37
2017-01-31T08:21:01.890Z,23.34
2017-01-31T08:22:15.747Z,23.38
2017-01-31T08:23:28.987Z,23.38
2017-01-31T08:24:56.700Z,23.38
2017-01-31T08:26:10.800Z,23.34
2017-01-31T08:27:24.679Z,23.25
2017-01-31T08:28:38.533Z,23.41
2017-01-31T08:30:05.635Z,23.44
2017-01-31T08:31:33.350Z,23.47
2017-01-31T08:32:47.202Z,23.45
2017-01-31T08:34:01.062Z,23.44
2017-01-31T08:35:14.308Z,23.35
2017-01-31T08:36:28.507Z,23.34
2017-01-31T08:37:42.384Z,23.31
2017-01-31T08:38:56.236Z,23.34
2017-01-31T08:40:10.089Z,23.34
2017-01-31T08:41:23.331Z,23.41
2017-01-31T08:42:37.529Z,23.42
2017-01-31T08:43:51.386Z,23.38
2017-01-31T08:45:05.239Z,23.39
2017-01-31T08:46:19.099Z,23.41
2017-01-31T08:47:32.948Z,23.38
2017-01-31T08:48:46.188Z,23.35
2017-01-31T08:50:00.035Z,23.29
2017-01-31T08:51:13.280Z,23.31
2017-01-31T08:52:27.130Z,23.29
2017-01-31T08:53:40.984Z,23.38
2017-01-31T08:54:54.866Z,23.32
2017-01-31T08:56:08.109Z,23.31
2017-01-31T08:57:21.958Z,23.37
2017-01-31T08:58:36.007Z,23.38
2017-01-31T08:59:49.855Z,23.41
2017-01-31T09:01:03.708Z,23.39
2017-01-31T09:02:17.564Z,23.41
2017-01-31T09:03:30.812Z,23.29
2017-01-31T09:04:44.679Z,23.37
2017-01-31T09:05:58.533Z,23.39
2017-01-31T09:07:12.386Z,23.42
2017-01-31T09:08:26.241Z,23.37
2017-01-31T09:09:40.090Z,23.41
2017-01-31T09:10:53.961Z,23.42
2017-01-31T09:12:07.808Z,23.39
2017-01-31T09:13:21.085Z,23.44
2017-01-31T09:14:35.140Z,23.47
2017-01-31T09:15:48.989Z,23.49
2017-01-31T09:17:02.842Z,23.42
2017-01-31T09:18:16.692Z,23.32
2017-01-31T09:19:30.539Z,23.42
2017-01-31T09:20:44.391Z,23.45
2017-01-31T09:21:58.241Z,23.52
2017-01-31T09:23:11.488Z,23.42
2017-01-31T09:24:25.339Z,23.53
2017-01-31T09:25:39.189Z,23.47
2017-01-31T09:26:53.064Z,23.53
2017-01-31T09:28:06.919Z,23.53
2017-01-31T09:29:20.775Z,23.52
2017-01-31T09:30:34.632Z,23.44
2017-01-31T09:31:48.481Z,23.47
2017-01-31T09:33:02.333Z,23.42
2017-01-31T09:34:15.581Z,23.39
2017-01-31T09:35:29.635Z,23.47
2017-01-31T09:36:42.881Z,23.53
2017-01-31T09:37:56.734Z,23.5
2017-01-31T09:39:10.590Z,23.52
2017-01-31T09:40:24.452Z,23.53
2017-01-31T09:41:38.333Z,23.49
2017-01-31T09:42:51.582Z,23.59
2017-01-31T09:44:19.323Z,23.6
2017-01-31T09:45:33.255Z,23.63
2017-01-31T09:46:47.123Z,23.68
2017-01-31T09:48:00.985Z,23.57
2017-01-31T09:49:14.892Z,23.78
2017-01-31T09:50:28.176Z,23.72
2017-01-31T09:51:42.073Z,23.68
2017-01-31T09:52:55.376Z,23.78
2017-01-31T09:54:08.663Z,23.84
2017-01-31T09:55:21.921Z,23.77
2017-01-31T09:56:35.434Z,23.86
2017-01-31T09:57:49.294Z,23.94
2017-01-31T09:59:03.157Z,23.89
2017-01-31T10:00:16.494Z,23.93
2017-01-31T10:01:29.932Z,23.92
2017-01-31T10:02:43.899Z,24.04
2017-01-31T10:03:57.902Z,23.97
2017-01-31T10:05:12.107Z,23.87
2017-01-31T10:06:26.289Z,24.05
2017-01-31T10:07:53.803Z,24.11
2017-01-31T10:09:07.232Z,24.11
2017-01-31T10:10:21.314Z,24
2017-01-31T10:11:34.812Z,24.02
2017-01-31T10:14:30.225Z,24.14
2017-01-31T10:15:44.227Z,24.15
2017-01-31T10:16:58.080Z,24.21
2017-01-31T10:18:24.826Z,24.26
2017-01-31T10:19:38.706Z,24.26
2017-01-31T10:20:52.559Z,24.3
2017-01-31T10:22:06.442Z,24.29
2017-01-31T10:23:19.690Z,24.34
2017-01-31T10:24:47.494Z,24.33
2017-01-31T10:26:00.800Z,24.46
2017-01-31T10:27:14.077Z,24.46
2017-01-31T10:29:55.852Z,24.51
2017-01-31T10:31:09.713Z,24.59
2017-01-31T10:32:23.556Z,24.42
2017-01-31T10:33:36.801Z,24.48
2017-01-31T10:34:50.649Z,24.53
2017-01-31T10:36:04.493Z,24.51
2017-01-31T10:37:18.352Z,24.55
2017-01-31T10:38:32.399Z,24.6
2017-01-31T10:40:00.114Z,24.61
2017-01-31T10:41:13.965Z,24.61
2017-01-31T10:42:27.196Z,24.63
2017-01-31T10:43:41.043Z,24.68
2017-01-31T10:44:54.886Z,24.75
2017-01-31T10:46:08.767Z,24.75
2017-01-31T10:47:22.079Z,24.89
2017-01-31T10:48:34.736Z,24.87
2017-01-31T10:49:48.252Z,24.9
2017-01-31T10:51:02.192Z,24.9
2017-01-31T10:52:16.163Z,24.98
2017-01-31T10:53:30.092Z,24.99
2017-01-31T10:54:43.967Z,25.01
2017-01-31T10:55:57.856Z,25.01
2017-01-31T10:57:25.588Z,25.14
2017-01-31T10:58:39.529Z,24.98
2017-01-31T10:59:53.443Z,24.9
2017-01-31T11:01:07.518Z,24.89
2017-01-31T11:02:35.450Z,24.87
2017-01-31T11:03:49.587Z,24.92
2017-01-31T11:05:03.690Z,25.08
2017-01-31T11:06:17.848Z,25.04
2017-01-31T11:07:32.027Z,25.09
2017-01-31T11:08:45.590Z,25.01
2017-01-31T11:09:59.783Z,25.02
2017-01-31T11:12:55.465Z,25.08
2017-01-31T11:14:09.318Z,25.23
2017-01-31T11:15:23.358Z,25.31
2017-01-31T11:16:36.586Z,25.34
2017-01-31T11:17:50.564Z,25.34
2017-01-31T11:19:04.791Z,25.38
2017-01-31T11:20:33.216Z,25.27
2017-01-31T11:21:47.460Z,25.14
2017-01-31T11:23:15.262Z,25.12
2017-01-31T11:24:29.088Z,25.26
2017-01-31T11:27:10.059Z,25.2
2017-01-31T11:28:23.912Z,25.14
2017-01-31T11:29:37.827Z,25.23
2017-01-31T11:30:52.041Z,25.19
2017-01-31T11:32:19.910Z,25.36
2017-01-31T11:33:33.853Z,25.45
2017-01-31T11:34:47.305Z,25.45
2017-01-31T11:36:01.676Z,25.49
2017-01-31T11:37:28.665Z,25.51
2017-01-31T11:38:42.151Z,25.46
2017-01-31T11:39:55.567Z,25.48
2017-01-31T11:41:09.138Z,25.64
2017-01-31T11:42:22.966Z,25.72
2017-01-31T11:43:36.789Z,25.72
2017-01-31T11:44:50.606Z,25.6
2017-01-31T11:46:05.577Z,25.66
2017-01-31T11:47:19.399Z,25.69
2017-01-31T11:48:33.215Z,25.74
2017-01-31T11:49:45.223Z,25.74
2017-01-31T11:50:59.047Z,25.74
2017-01-31T11:52:12.869Z,25.85
2017-01-31T11:53:26.710Z,25.79
2017-01-31T11:54:39.956Z,25.9
2017-01-31T11:55:53.809Z,25.94
2017-01-31T11:57:07.033Z,26.04
2017-01-31T11:58:20.859Z,26.09
2017-01-31T11:59:34.709Z,26.2
2017-01-31T12:00:47.929Z,26.08
2017-01-31T12:02:01.152Z,25.94
2017-01-31T12:03:14.978Z,25.86
2017-01-31T12:04:28.799Z,26
2017-01-31T12:05:42.649Z,26.06
2017-01-31T12:06:56.466Z,26.03
2017-01-31T12:08:10.287Z,26.11
2017-01-31T12:09:23.506Z,26.2
2017-01-31T12:10:36.725Z,26.13
2017-01-31T12:11:49.951Z,26.09
2017-01-31T12:13:03.173Z,26.19
2017-01-31T12:14:16.998Z,26.19
2017-01-31T12:15:30.827Z,26.28
2017-01-31T12:16:58.521Z,26.23
2017-01-31T12:18:11.745Z,26.29
2017-01-31T12:19:25.572Z,26.23
2017-01-31T12:20:39.398Z,26.13
2017-01-31T12:21:52.626Z,26.24
2017-01-31T12:23:06.516Z,26.12
2017-01-31T12:24:20.392Z,26.11
2017-01-31T12:25:48.097Z,25.89
2017-01-31T12:27:01.931Z,25.76
2017-01-31T12:28:15.183Z,25.82
2017-01-31T12:29:29.035Z,25.76
2017-01-31T12:30:42.262Z,25.82
2017-01-31T12:31:56.107Z,25.86
2017-01-31T12:33:09.382Z,26.06
2017-01-31T12:34:23.325Z,26.12
2017-01-31T12:35:37.305Z,26.12
2017-01-31T12:38:19.106Z,26.21
2017-01-31T12:39:33.157Z,26.27
2017-01-31T12:40:47.207Z,26.34
2017-01-31T12:42:01.183Z,26.53
2017-01-31T12:43:15.265Z,26.68
2017-01-31T12:44:42.443Z,26.84
2017-01-31T12:45:56.492Z,26.87
2017-01-31T12:47:10.493Z,26.94
2017-01-31T12:48:24.445Z,27.13
2017-01-31T12:49:38.271Z,27.33
2017-01-31T12:50:51.485Z,27.59
2017-01-31T12:52:18.572Z,27.77
2017-01-31T12:53:32.400Z,27.98
2017-01-31T12:54:46.524Z,28.24
2017-01-31T12:56:00.342Z,28.32
2017-01-31T12:57:14.164Z,28.27
2017-01-31T12:58:27.990Z,28.3
2017-01-31T12:59:41.816Z,28.45
2017-01-31T13:00:55.635Z,28.38
2017-01-31T13:02:09.461Z,28.36
2017-01-31T13:03:23.294Z,28.21
2017-01-31T13:04:37.116Z,28.18
2017-01-31T13:05:50.940Z,28.3
2017-01-31T13:07:04.778Z,28.33
2017-01-31T13:08:32.484Z,28.7
2017-01-31T13:10:00.179Z,28.8
2017-01-31T13:11:14.021Z,28.98
2017-01-31T13:12:27.908Z,28.97
2017-01-31T13:13:41.204Z,29.08
2017-01-31T13:14:55.092Z,29.07
2017-01-31T13:16:07.826Z,29.11
2017-01-31T13:17:21.830Z,29.17
2017-01-31T13:18:35.805Z,29.17
2017-01-31T13:19:49.722Z,29.07
2017-01-31T13:21:04.006Z,28.95
2017-01-31T13:22:18.002Z,29.02
2017-01-31T13:23:31.284Z,28.97
2017-01-31T13:24:45.125Z,28.95
2017-01-31T13:25:58.949Z,29.05
2017-01-31T13:27:12.810Z,29.26
2017-01-31T13:28:26.639Z,29.41
2017-01-31T13:29:39.855Z,29.48
2017-01-31T13:30:53.079Z,29.36
2017-01-31T13:32:07.157Z,28.82
2017-01-31T13:33:20.476Z,28.7
2017-01-31T13:34:34.321Z,28.74
2017-01-31T13:35:48.166Z,28.72
2017-01-31T13:37:02.009Z,28.58
2017-01-31T13:38:15.281Z,28.48
2017-01-31T13:39:29.114Z,28.3
2017-01-31T13:40:56.810Z,28.38
2017-01-31T13:42:10.642Z,28.54
2017-01-31T13:43:38.337Z,28.95
2017-01-31T13:44:51.553Z,29.44
2017-01-31T13:46:05.380Z,29.64
2017-01-31T13:47:19.458Z,29.58
2017-01-31T13:48:33.284Z,29.85
2017-01-31T13:49:47.119Z,29.88
2017-01-31T13:51:00.341Z,30.26
2017-01-31T13:52:14.165Z,30.48
2017-01-31T13:53:27.991Z,30.46
2017-01-31T13:54:41.826Z,30.67
2017-01-31T13:55:55.674Z,30.56
2017-01-31T13:57:09.503Z,30.66
2017-01-31T13:58:23.591Z,30.73
2017-01-31T13:59:37.422Z,30.68
2017-01-31T14:00:51.251Z,30.63
2017-01-31T14:02:05.081Z,30.78
2017-01-31T14:03:32.779Z,31
2017-01-31T14:04:46.004Z,31.03
2017-01-31T14:05:59.832Z,31.1
2017-01-31T14:07:13.663Z,31.25
2017-01-31T14:08:27.493Z,31.5
2017-01-31T14:09:41.324Z,31.69
2017-01-31T14:10:55.150Z,31.87
2017-01-31T14:12:08.981Z,32.05
2017-01-31T14:13:21.591Z,32.06
2017-01-31T14:14:34.843Z,32.07
2017-01-31T14:15:48.671Z,31.88
2017-01-31T14:17:02.500Z,31.64
2017-01-31T14:18:16.332Z,31.64
2017-01-31T14:19:30.157Z,31.78
2017-01-31T14:20:43.985Z,31.91
2017-01-31T14:21:57.813Z,31.97
2017-01-31T14:23:11.037Z,31.41
2017-01-31T14:24:24.864Z,30.83
2017-01-31T14:25:38.082Z,30.94
2017-01-31T14:27:05.775Z,31.13
2017-01-31T14:28:19.606Z,31.22
2017-01-31T14:29:33.025Z,31.05
2017-01-31T14:30:46.854Z,30.79
2017-01-31T14:32:00.679Z,30.48
2017-01-31T14:33:14.504Z,30.66
2017-01-31T14:34:28.332Z,30.72
2017-01-31T14:35:42.165Z,30.67
2017-01-31T14:36:55.995Z,30.7
2017-01-31T14:38:09.213Z,30.79
2017-01-31T14:39:23.041Z,30.91
2017-01-31T14:40:36.869Z,30.86
2017-01-31T14:41:50.694Z,30.93
2017-01-31T14:43:04.565Z,31
2017-01-31T14:44:18.399Z,31.03
2017-01-31T14:45:32.574Z,31.27
2017-01-31T14:46:46.396Z,31.38
2017-01-31T14:48:00.221Z,31.52
2017-01-31T14:49:14.048Z,31.53
2017-01-31T14:50:28.068Z,31.64
2017-01-31T14:51:41.896Z,31.65
2017-01-31T14:53:09.597Z,31.64
2017-01-31T14:54:23.430Z,31.75
2017-01-31T14:55:37.511Z,31.67
2017-01-31T14:56:51.344Z,31.6
2017-01-31T14:58:05.176Z,31.62
2017-01-31T14:59:19.010Z,31.82
2017-01-31T15:00:32.834Z,31.74
2017-01-31T15:01:47.016Z,31.1
2017-01-31T15:03:00.843Z,31.07
2017-01-31T15:04:28.545Z,30.76
2017-01-31T15:05:42.937Z,30.86
2017-01-31T15:06:56.791Z,30.86
2017-01-31T15:08:10.659Z,30.73
2017-01-31T15:09:24.522Z,30.88
2017-01-31T15:10:38.377Z,30.88
2017-01-31T15:12:05.843Z,30.82
2017-01-31T15:13:19.672Z,30.94
2017-01-31T15:14:33.499Z,31.04
2017-01-31T15:15:47.577Z,30.7
2017-01-31T15:17:01.403Z,30.68
2017-01-31T15:18:14.628Z,30.91
2017-01-31T15:19:28.456Z,31.09
2017-01-31T15:20:42.281Z,31.13
2017-01-31T15:21:56.107Z,31.19
2017-01-31T15:23:09.931Z,31.12
2017-01-31T15:24:23.193Z,31.12
2017-01-31T15:25:37.018Z,31.19
2017-01-31T15:26:49.629Z,31.34
2017-01-31T15:28:03.458Z,31.27
2017-01-31T15:29:16.674Z,31.23
2017-01-31T15:30:30.501Z,31.2
2017-01-31T15:31:44.335Z,31.1
2017-01-31T15:32:58.417Z,30.93
2017-01-31T15:34:26.112Z,30.91
2017-01-31T15:35:39.940Z,30.81
2017-01-31T15:36:53.774Z,30.68
2017-01-31T15:38:07.598Z,30.68
2017-01-31T15:39:34.688Z,30.79
2017-01-31T15:40:48.516Z,30.94
2017-01-31T15:42:01.738Z,30.93
2017-01-31T15:43:14.960Z,31
2017-01-31T15:44:28.785Z,30.81
2017-01-31T15:45:42.632Z,30.82
2017-01-31T15:46:56.493Z,30.86
2017-01-31T15:48:10.327Z,30.82
2017-01-31T15:49:38.035Z,31.1
2017-01-31T15:50:51.859Z,30.86
2017-01-31T15:52:04.469Z,30.83
2017-01-31T15:53:18.300Z,30.81
2017-01-31T15:54:31.527Z,30.94
2017-01-31T15:55:44.752Z,30.94
2017-01-31T15:56:57.974Z,31.09
2017-01-31T15:58:11.205Z,31.09
2017-01-31T15:59:25.033Z,31.23
2017-01-31T16:00:38.260Z,31.07
2017-01-31T16:01:52.090Z,30.79
2017-01-31T16:03:05.918Z,30.61
2017-01-31T16:04:19.741Z,30.57
2017-01-31T16:05:33.564Z,30.68
2017-01-31T16:06:46.789Z,30.75
2017-01-31T16:08:01.813Z,30.68
2017-01-31T16:09:16.079Z,30.68
2017-01-31T16:10:30.062Z,30.29
2017-01-31T16:11:44.248Z,29.97
2017-01-31T16:12:57.626Z,29.84
2017-01-31T16:14:11.770Z,29.71
2017-01-31T16:15:25.758Z,29.54
2017-01-31T16:16:39.887Z,29.62